sensor_id;sensor_type;location;lat;lon;timestamp;temperature;humidity
10453;DHT22;5274;51.992;8.518;2023-01-23T00:01:03;1.30;42.20
10453;DHT22;5274;51.992;8.518;2023-01-23T00:03:29;1.30;38.90
10453;DHT22;5274;51.992;8.518;2023-01-23T00:05:59;1.30;38.90
10453;DHT22;5274;51.992;8.518;2023-01-23T00:08:25;1.20;34.00
10453;DHT22;5274;51.992;8.518;2023-01-23T00:10:51;1.20;29.60
10453;DHT22;5274;51.992;8.518;2023-01-23T00:13:17;1.20;36.90
10453;DHT22;5274;51.992;8.518;2023-01-23T00:15:43;1.30;48.70
10453;DHT22;5274;51.992;8.518;2023-01-23T00:18:08;1.20;43.00
10453;DHT22;5274;51.992;8.518;2023-01-23T00:20:36;1.30;49.60
10453;DHT22;5274;51.992;8.518;2023-01-23T00:23:02;1.20;46.20
10453;DHT22;5274;51.992;8.518;2023-01-23T00:25:27;1.20;51.30
10453;DHT22;5274;51.992;8.518;2023-01-23T00:27:53;1.30;66.10
10453;DHT22;5274;51.992;8.518;2023-01-23T00:30:18;1.20;57.00
10453;DHT22;5274;51.992;8.518;2023-01-23T00:32:44;1.20;53.00
10453;DHT22;5274;51.992;8.518;2023-01-23T00:35:09;1.20;50.50
10453;DHT22;5274;51.992;8.518;2023-01-23T00:37:35;1.20;53.90
10453;DHT22;5274;51.992;8.518;2023-01-23T00:40:01;1.20;52.20
10453;DHT22;5274;51.992;8.518;2023-01-23T00:42:26;1.30;53.30
10453;DHT22;5274;51.992;8.518;2023-01-23T00:44:52;1.20;40.80
10453;DHT22;5274;51.992;8.518;2023-01-23T00:47:17;1.20;41.50
10453;DHT22;5274;51.992;8.518;2023-01-23T00:49:43;1.20;51.00
10453;DHT22;5274;51.992;8.518;2023-01-23T00:52:08;1.20;47.10
10453;DHT22;5274;51.992;8.518;2023-01-23T00:54:34;1.20;55.10
10453;DHT22;5274;51.992;8.518;2023-01-23T00:56:59;1.20;68.70
10453;DHT22;5274;51.992;8.518;2023-01-23T00:59:25;1.20;68.00
10453;DHT22;5274;51.992;8.518;2023-01-23T01:01:50;1.20;67.70
10453;DHT22;5274;51.992;8.518;2023-01-23T01:04:16;1.30;69.20
10453;DHT22;5274;51.992;8.518;2023-01-23T01:06:41;1.30;65.70
10453;DHT22;5274;51.992;8.518;2023-01-23T01:09:07;1.20;52.40
10453;DHT22;5274;51.992;8.518;2023-01-23T01:11:32;1.20;59.20
10453;DHT22;5274;51.992;8.518;2023-01-23T01:13:58;1.20;69.90
10453;DHT22;5274;51.992;8.518;2023-01-23T01:16:25;1.20;59.30
10453;DHT22;5274;51.992;8.518;2023-01-23T01:18:51;1.20;69.00
10453;DHT22;5274;51.992;8.518;2023-01-23T01:21:17;1.20;78.10
10453;DHT22;5274;51.992;8.518;2023-01-23T01:23:42;1.20;60.00
10453;DHT22;5274;51.992;8.518;2023-01-23T01:26:09;1.20;56.00
10453;DHT22;5274;51.992;8.518;2023-01-23T01:28:36;1.20;64.30
10453;DHT22;5274;51.992;8.518;2023-01-23T01:31:11;1.20;56.80
10453;DHT22;5274;51.992;8.518;2023-01-23T01:33:38;1.20;37.40
10453;DHT22;5274;51.992;8.518;2023-01-23T01:36:10;1.20;43.90
10453;DHT22;5274;51.992;8.518;2023-01-23T01:38:37;1.20;45.10
10453;DHT22;5274;51.992;8.518;2023-01-23T01:41:03;0.60;49.80
10453;DHT22;5274;51.992;8.518;2023-01-23T01:43:29;1.20;49.00
10453;DHT22;5274;51.992;8.518;2023-01-23T01:46:25;1.20;42.00
10453;DHT22;5274;51.992;8.518;2023-01-23T01:51:56;1.20;40.00
10453;DHT22;5274;51.992;8.518;2023-01-23T01:54:39;1.20;46.70
10453;DHT22;5274;51.992;8.518;2023-01-23T01:57:22;1.20;45.20
10453;DHT22;5274;51.992;8.518;2023-01-23T01:59:57;1.20;46.60
10453;DHT22;5274;51.992;8.518;2023-01-23T02:10:39;1.30;51.00
10453;DHT22;5274;51.992;8.518;2023-01-23T02:13:26;1.20;28.50
10453;DHT22;5274;51.992;8.518;2023-01-23T02:15:55;1.20;33.30
10453;DHT22;5274;51.992;8.518;2023-01-23T02:18:21;1.30;48.70
10453;DHT22;5274;51.992;8.518;2023-01-23T02:20:47;1.30;55.10
10453;DHT22;5274;51.992;8.518;2023-01-23T02:26:06;1.20;46.60
10453;DHT22;5274;51.992;8.518;2023-01-23T02:28:51;1.20;47.50
10453;DHT22;5274;51.992;8.518;2023-01-23T02:31:18;1.20;53.20
10453;DHT22;5274;51.992;8.518;2023-01-23T02:33:49;1.20;39.80
10453;DHT22;5274;51.992;8.518;2023-01-23T02:36:17;1.20;45.20
10453;DHT22;5274;51.992;8.518;2023-01-23T02:39:10;1.20;39.80
10453;DHT22;5274;51.992;8.518;2023-01-23T02:41:43;1.10;38.60
10453;DHT22;5274;51.992;8.518;2023-01-23T02:44:19;1.20;47.00
10453;DHT22;5274;51.992;8.518;2023-01-23T02:46:49;1.20;47.20
10453;DHT22;5274;51.992;8.518;2023-01-23T02:49:14;1.20;39.30
10453;DHT22;5274;51.992;8.518;2023-01-23T02:51:40;1.20;30.80
10453;DHT22;5274;51.992;8.518;2023-01-23T02:54:06;1.20;29.00
10453;DHT22;5274;51.992;8.518;2023-01-23T02:56:31;1.20;18.00
10453;DHT22;5274;51.992;8.518;2023-01-23T02:58:58;1.20;6.20
10453;DHT22;5274;51.992;8.518;2023-01-23T03:01:42;1.20;1.00
10453;DHT22;5274;51.992;8.518;2023-01-23T03:04:07;1.20;1.00
10453;DHT22;5274;51.992;8.518;2023-01-23T03:06:35;1.10;1.00
10453;DHT22;5274;51.992;8.518;2023-01-23T03:09:07;1.10;1.00
10453;DHT22;5274;51.992;8.518;2023-01-23T03:11:35;1.10;1.00
10453;DHT22;5274;51.992;8.518;2023-01-23T03:14:00;1.10;1.00
10453;DHT22;5274;51.992;8.518;2023-01-23T03:16:26;1.10;1.00
10453;DHT22;5274;51.992;8.518;2023-01-23T03:18:53;1.10;1.00
10453;DHT22;5274;51.992;8.518;2023-01-23T03:21:18;1.10;1.00
10453;DHT22;5274;51.992;8.518;2023-01-23T03:23:44;1.10;1.00
10453;DHT22;5274;51.992;8.518;2023-01-23T03:26:12;1.10;1.00
10453;DHT22;5274;51.992;8.518;2023-01-23T03:28:37;1.10;1.00
10453;DHT22;5274;51.992;8.518;2023-01-23T03:31:21;1.10;4.90
10453;DHT22;5274;51.992;8.518;2023-01-23T03:33:47;1.10;6.70
10453;DHT22;5274;51.992;8.518;2023-01-23T03:36:13;1.10;7.70
10453;DHT22;5274;51.992;8.518;2023-01-23T03:38:39;1.20;9.70
10453;DHT22;5274;51.992;8.518;2023-01-23T03:41:24;1.10;7.50
10453;DHT22;5274;51.992;8.518;2023-01-23T03:43:50;1.10;12.10
10453;DHT22;5274;51.992;8.518;2023-01-23T03:46:15;1.20;19.60
10453;DHT22;5274;51.992;8.518;2023-01-23T03:48:41;1.10;16.80
10453;DHT22;5274;51.992;8.518;2023-01-23T03:51:06;1.20;25.70
10453;DHT22;5274;51.992;8.518;2023-01-23T03:53:32;1.30;30.80
10453;DHT22;5274;51.992;8.518;2023-01-23T03:55:57;1.30;29.30
10453;DHT22;5274;51.992;8.518;2023-01-23T03:58:23;1.30;26.30
10453;DHT22;5274;51.992;8.518;2023-01-23T04:00:48;1.30;24.70
10453;DHT22;5274;51.992;8.518;2023-01-23T04:03:14;1.30;17.80
10453;DHT22;5274;51.992;8.518;2023-01-23T04:05:40;1.30;4.90
10453;DHT22;5274;51.992;8.518;2023-01-23T04:08:05;1.30;1.00
10453;DHT22;5274;51.992;8.518;2023-01-23T04:10:30;1.30;1.00
10453;DHT22;5274;51.992;8.518;2023-01-23T04:12:56;1.30;1.00
10453;DHT22;5274;51.992;8.518;2023-01-23T04:15:22;1.30;1.00
10453;DHT22;5274;51.992;8.518;2023-01-23T04:17:47;1.30;1.00
10453;DHT22;5274;51.992;8.518;2023-01-23T04:20:13;1.20;1.00
10453;DHT22;5274;51.992;8.518;2023-01-23T04:22:39;1.20;1.00
10453;DHT22;5274;51.992;8.518;2023-01-23T04:25:05;1.20;1.00
10453;DHT22;5274;51.992;8.518;2023-01-23T04:27:31;1.20;1.00
10453;DHT22;5274;51.992;8.518;2023-01-23T04:29:56;1.20;1.00
10453;DHT22;5274;51.992;8.518;2023-01-23T04:32:23;1.20;1.00
10453;DHT22;5274;51.992;8.518;2023-01-23T04:34:49;1.20;8.60
10453;DHT22;5274;51.992;8.518;2023-01-23T04:37:14;1.20;9.40
10453;DHT22;5274;51.992;8.518;2023-01-23T04:39:40;1.20;1.00
10453;DHT22;5274;51.992;8.518;2023-01-23T04:42:05;1.20;7.50
10453;DHT22;5274;51.992;8.518;2023-01-23T04:44:31;1.30;9.30
10453;DHT22;5274;51.992;8.518;2023-01-23T04:46:56;1.30;11.20
10453;DHT22;5274;51.992;8.518;2023-01-23T04:49:23;1.30;5.70
10453;DHT22;5274;51.992;8.518;2023-01-23T04:51:50;1.30;2.20
10453;DHT22;5274;51.992;8.518;2023-01-23T04:54:16;1.30;1.00
10453;DHT22;5274;51.992;8.518;2023-01-23T04:56:42;1.30;1.00
10453;DHT22;5274;51.992;8.518;2023-01-23T04:59:08;1.30;1.00
10453;DHT22;5274;51.992;8.518;2023-01-23T05:01:34;1.30;1.00
10453;DHT22;5274;51.992;8.518;2023-01-23T05:04:00;1.30;1.00
10453;DHT22;5274;51.992;8.518;2023-01-23T05:06:26;1.30;1.00
10453;DHT22;5274;51.992;8.518;2023-01-23T05:08:52;1.30;1.00
10453;DHT22;5274;51.992;8.518;2023-01-23T05:11:17;1.40;1.00
10453;DHT22;5274;51.992;8.518;2023-01-23T05:13:43;1.40;1.00
10453;DHT22;5274;51.992;8.518;2023-01-23T05:16:08;1.40;1.00
10453;DHT22;5274;51.992;8.518;2023-01-23T05:18:34;1.40;1.00
10453;DHT22;5274;51.992;8.518;2023-01-23T05:20:59;1.40;1.00
10453;DHT22;5274;51.992;8.518;2023-01-23T05:23:25;1.40;1.00
10453;DHT22;5274;51.992;8.518;2023-01-23T05:25:50;1.40;1.00
10453;DHT22;5274;51.992;8.518;2023-01-23T05:28:16;1.40;1.00
10453;DHT22;5274;51.992;8.518;2023-01-23T05:30:41;1.40;1.00
10453;DHT22;5274;51.992;8.518;2023-01-23T05:33:07;1.40;1.00
10453;DHT22;5274;51.992;8.518;2023-01-23T05:35:32;1.40;1.00
10453;DHT22;5274;51.992;8.518;2023-01-23T05:37:58;1.50;1.00
10453;DHT22;5274;51.992;8.518;2023-01-23T05:40:24;1.40;1.00
10453;DHT22;5274;51.992;8.518;2023-01-23T05:42:49;1.40;1.00
10453;DHT22;5274;51.992;8.518;2023-01-23T05:45:15;1.40;1.00
10453;DHT22;5274;51.992;8.518;2023-01-23T05:47:41;1.30;1.00
10453;DHT22;5274;51.992;8.518;2023-01-23T05:50:12;1.30;1.00
10453;DHT22;5274;51.992;8.518;2023-01-23T05:52:38;1.30;1.00
10453;DHT22;5274;51.992;8.518;2023-01-23T05:55:04;1.20;1.00
10453;DHT22;5274;51.992;8.518;2023-01-23T05:57:30;1.20;1.00
10453;DHT22;5274;51.992;8.518;2023-01-23T05:59:55;1.20;1.00
10453;DHT22;5274;51.992;8.518;2023-01-23T06:02:21;0.80;2.00
10453;DHT22;5274;51.992;8.518;2023-01-23T06:04:47;1.30;1.00
10453;DHT22;5274;51.992;8.518;2023-01-23T06:07:14;1.30;3.40
10453;DHT22;5274;51.992;8.518;2023-01-23T06:09:39;1.30;1.00
10453;DHT22;5274;51.992;8.518;2023-01-23T06:12:05;1.30;1.00
10453;DHT22;5274;51.992;8.518;2023-01-23T06:14:31;1.40;1.00
10453;DHT22;5274;51.992;8.518;2023-01-23T06:16:56;1.40;1.00
10453;DHT22;5274;51.992;8.518;2023-01-23T06:19:22;1.40;1.00
10453;DHT22;5274;51.992;8.518;2023-01-23T06:21:47;1.40;1.30
10453;DHT22;5274;51.992;8.518;2023-01-23T06:24:12;1.40;1.00
10453;DHT22;5274;51.992;8.518;2023-01-23T06:26:38;1.40;1.00
10453;DHT22;5274;51.992;8.518;2023-01-23T06:29:04;1.50;1.00
10453;DHT22;5274;51.992;8.518;2023-01-23T06:31:29;1.40;1.00
10453;DHT22;5274;51.992;8.518;2023-01-23T06:33:57;1.40;1.00
10453;DHT22;5274;51.992;8.518;2023-01-23T06:36:23;1.40;1.00
10453;DHT22;5274;51.992;8.518;2023-01-23T06:38:48;1.50;1.00
10453;DHT22;5274;51.992;8.518;2023-01-23T06:41:14;1.50;1.00
10453;DHT22;5274;51.992;8.518;2023-01-23T06:43:39;1.50;1.00
10453;DHT22;5274;51.992;8.518;2023-01-23T06:46:07;1.50;1.00
10453;DHT22;5274;51.992;8.518;2023-01-23T06:48:34;1.50;1.00
10453;DHT22;5274;51.992;8.518;2023-01-23T06:51:00;1.50;1.00
10453;DHT22;5274;51.992;8.518;2023-01-23T06:53:25;1.50;1.00
10453;DHT22;5274;51.992;8.518;2023-01-23T06:55:51;1.50;1.00
10453;DHT22;5274;51.992;8.518;2023-01-23T06:58:17;1.50;1.00
10453;DHT22;5274;51.992;8.518;2023-01-23T07:00:43;1.60;1.00
10453;DHT22;5274;51.992;8.518;2023-01-23T07:03:10;1.50;1.00
10453;DHT22;5274;51.992;8.518;2023-01-23T07:05:36;1.50;1.00
10453;DHT22;5274;51.992;8.518;2023-01-23T07:08:04;1.40;1.00
10453;DHT22;5274;51.992;8.518;2023-01-23T07:10:29;1.40;1.00
10453;DHT22;5274;51.992;8.518;2023-01-23T07:12:56;1.40;1.00
10453;DHT22;5274;51.992;8.518;2023-01-23T07:15:22;1.40;1.00
10453;DHT22;5274;51.992;8.518;2023-01-23T07:17:47;1.50;1.00
10453;DHT22;5274;51.992;8.518;2023-01-23T07:20:13;1.60;1.00
10453;DHT22;5274;51.992;8.518;2023-01-23T07:22:38;1.50;1.00
10453;DHT22;5274;51.992;8.518;2023-01-23T07:25:05;1.60;1.00
10453;DHT22;5274;51.992;8.518;2023-01-23T07:27:30;1.60;1.00
10453;DHT22;5274;51.992;8.518;2023-01-23T07:29:57;1.50;1.00
10453;DHT22;5274;51.992;8.518;2023-01-23T07:32:22;1.50;1.00
10453;DHT22;5274;51.992;8.518;2023-01-23T07:34:48;1.60;1.00
10453;DHT22;5274;51.992;8.518;2023-01-23T07:37:13;1.60;1.00
10453;DHT22;5274;51.992;8.518;2023-01-23T07:39:39;1.60;1.00
10453;DHT22;5274;51.992;8.518;2023-01-23T07:42:04;1.60;1.00
10453;DHT22;5274;51.992;8.518;2023-01-23T07:44:30;1.60;1.00
10453;DHT22;5274;51.992;8.518;2023-01-23T07:46:55;1.60;1.00
10453;DHT22;5274;51.992;8.518;2023-01-23T07:49:21;1.60;1.00
10453;DHT22;5274;51.992;8.518;2023-01-23T07:51:46;1.60;1.00
10453;DHT22;5274;51.992;8.518;2023-01-23T07:54:12;1.60;1.00
10453;DHT22;5274;51.992;8.518;2023-01-23T07:56:38;1.60;1.00
10453;DHT22;5274;51.992;8.518;2023-01-23T07:59:03;1.60;1.00
10453;DHT22;5274;51.992;8.518;2023-01-23T08:01:29;1.50;1.00
10453;DHT22;5274;51.992;8.518;2023-01-23T08:03:54;1.60;1.00
10453;DHT22;5274;51.992;8.518;2023-01-23T08:06:19;1.60;1.00
10453;DHT22;5274;51.992;8.518;2023-01-23T08:08:48;1.60;1.00
10453;DHT22;5274;51.992;8.518;2023-01-23T08:11:14;1.60;1.00
10453;DHT22;5274;51.992;8.518;2023-01-23T08:13:40;1.60;1.00
10453;DHT22;5274;51.992;8.518;2023-01-23T08:16:06;1.60;1.00
10453;DHT22;5274;51.992;8.518;2023-01-23T08:18:32;1.60;1.00
10453;DHT22;5274;51.992;8.518;2023-01-23T08:20:59;1.60;1.00
10453;DHT22;5274;51.992;8.518;2023-01-23T08:23:27;1.50;1.00
10453;DHT22;5274;51.992;8.518;2023-01-23T08:25:53;1.60;1.00
10453;DHT22;5274;51.992;8.518;2023-01-23T08:28:20;1.60;1.00
10453;DHT22;5274;51.992;8.518;2023-01-23T08:30:45;1.70;1.00
10453;DHT22;5274;51.992;8.518;2023-01-23T08:33:11;1.70;1.00
10453;DHT22;5274;51.992;8.518;2023-01-23T08:35:37;1.80;1.00
10453;DHT22;5274;51.992;8.518;2023-01-23T08:38:02;1.80;1.00
10453;DHT22;5274;51.992;8.518;2023-01-23T08:40:28;1.80;1.00
10453;DHT22;5274;51.992;8.518;2023-01-23T08:42:54;1.80;1.00
10453;DHT22;5274;51.992;8.518;2023-01-23T08:45:19;1.80;1.00
10453;DHT22;5274;51.992;8.518;2023-01-23T08:47:46;1.80;1.00
10453;DHT22;5274;51.992;8.518;2023-01-23T08:50:12;1.90;99.90
10453;DHT22;5274;51.992;8.518;2023-01-23T08:52:37;1.90;99.90
10453;DHT22;5274;51.992;8.518;2023-01-23T08:55:03;1.90;99.90
10453;DHT22;5274;51.992;8.518;2023-01-23T08:57:29;1.90;99.90
10453;DHT22;5274;51.992;8.518;2023-01-23T08:59:55;2.00;99.90
10453;DHT22;5274;51.992;8.518;2023-01-23T09:02:20;2.00;99.90
10453;DHT22;5274;51.992;8.518;2023-01-23T09:04:46;2.00;99.90
10453;DHT22;5274;51.992;8.518;2023-01-23T09:07:12;2.00;1.00
10453;DHT22;5274;51.992;8.518;2023-01-23T09:09:37;1.90;50.50
10453;DHT22;5274;51.992;8.518;2023-01-23T09:12:03;1.90;1.00
10453;DHT22;5274;51.992;8.518;2023-01-23T09:14:29;1.90;99.90
10453;DHT22;5274;51.992;8.518;2023-01-23T09:16:55;1.90;23.00
10453;DHT22;5274;51.992;8.518;2023-01-23T09:19:20;1.90;99.90
10453;DHT22;5274;51.992;8.518;2023-01-23T09:21:46;1.90;1.00
10453;DHT22;5274;51.992;8.518;2023-01-23T09:24:11;1.90;1.00
10453;DHT22;5274;51.992;8.518;2023-01-23T09:26:37;1.90;1.00
10453;DHT22;5274;51.992;8.518;2023-01-23T09:29:02;1.80;1.00
10453;DHT22;5274;51.992;8.518;2023-01-23T09:31:28;1.90;65.30
10453;DHT22;5274;51.992;8.518;2023-01-23T09:33:53;1.90;74.60
10453;DHT22;5274;51.992;8.518;2023-01-23T09:36:19;2.00;99.90
10453;DHT22;5274;51.992;8.518;2023-01-23T09:38:47;2.00;1.00
10453;DHT22;5274;51.992;8.518;2023-01-23T09:41:19;2.00;1.00
10453;DHT22;5274;51.992;8.518;2023-01-23T09:44:18;2.00;1.00
10453;DHT22;5274;51.992;8.518;2023-01-23T09:46:54;2.00;1.00
10453;DHT22;5274;51.992;8.518;2023-01-23T09:49:46;2.00;99.90
10453;DHT22;5274;51.992;8.518;2023-01-23T09:52:23;2.20;6.50
10453;DHT22;5274;51.992;8.518;2023-01-23T09:55:09;2.20;1.00
10453;DHT22;5274;51.992;8.518;2023-01-23T09:57:41;2.10;1.00
10453;DHT22;5274;51.992;8.518;2023-01-23T10:00:25;2.10;1.00
10453;DHT22;5274;51.992;8.518;2023-01-23T10:02:55;2.20;1.00
10453;DHT22;5274;51.992;8.518;2023-01-23T10:05:44;2.10;1.00
10453;DHT22;5274;51.992;8.518;2023-01-23T10:08:20;2.10;1.00
10453;DHT22;5274;51.992;8.518;2023-01-23T10:14:13;2.40;1.00
10453;DHT22;5274;51.992;8.518;2023-01-23T10:24:56;2.30;1.00
10453;DHT22;5274;51.992;8.518;2023-01-23T10:27:25;2.40;1.00
10453;DHT22;5274;51.992;8.518;2023-01-23T10:32:55;2.40;1.00
10453;DHT22;5274;51.992;8.518;2023-01-23T10:35:25;2.40;99.90
10453;DHT22;5274;51.992;8.518;2023-01-23T10:40:48;2.70;1.00
10453;DHT22;5274;51.992;8.518;2023-01-23T10:43:33;2.60;99.90
10453;DHT22;5274;51.992;8.518;2023-01-23T10:45:59;2.50;99.90
10453;DHT22;5274;51.992;8.518;2023-01-23T10:48:44;2.50;99.90
10453;DHT22;5274;51.992;8.518;2023-01-23T10:54:43;2.50;99.90
10453;DHT22;5274;51.992;8.518;2023-01-23T10:56:57;2.40;99.90
10453;DHT22;5274;51.992;8.518;2023-01-23T10:59:27;2.50;1.00
10453;DHT22;5274;51.992;8.518;2023-01-23T11:01:56;2.50;1.00
10453;DHT22;5274;51.992;8.518;2023-01-23T11:04:24;2.50;99.90
10453;DHT22;5274;51.992;8.518;2023-01-23T11:07:00;2.50;99.90
10453;DHT22;5274;51.992;8.518;2023-01-23T11:09:27;2.50;99.90
10453;DHT22;5274;51.992;8.518;2023-01-23T11:12:00;2.60;99.90
10453;DHT22;5274;51.992;8.518;2023-01-23T11:14:26;2.60;99.90
10453;DHT22;5274;51.992;8.518;2023-01-23T11:17:10;2.70;99.90
10453;DHT22;5274;51.992;8.518;2023-01-23T11:19:37;2.70;1.00
10453;DHT22;5274;51.992;8.518;2023-01-23T11:22:03;2.80;85.00
10453;DHT22;5274;51.992;8.518;2023-01-23T11:24:33;2.80;99.90
10453;DHT22;5274;51.992;8.518;2023-01-23T11:27:03;2.80;1.00
10453;DHT22;5274;51.992;8.518;2023-01-23T11:29:30;2.90;1.00
10453;DHT22;5274;51.992;8.518;2023-01-23T11:32:11;2.90;1.00
10453;DHT22;5274;51.992;8.518;2023-01-23T11:34:40;2.80;1.00
10453;DHT22;5274;51.992;8.518;2023-01-23T11:37:14;2.80;1.00
10453;DHT22;5274;51.992;8.518;2023-01-23T11:40:02;2.80;1.00
10453;DHT22;5274;51.992;8.518;2023-01-23T11:42:30;2.90;1.00
10453;DHT22;5274;51.992;8.518;2023-01-23T11:44:58;2.90;1.00
10453;DHT22;5274;51.992;8.518;2023-01-23T11:50:34;2.90;99.90
10453;DHT22;5274;51.992;8.518;2023-01-23T11:53:16;2.70;99.90
10453;DHT22;5274;51.992;8.518;2023-01-23T12:02:08;2.70;1.00
10453;DHT22;5274;51.992;8.518;2023-01-23T12:05:00;2.70;1.00
10453;DHT22;5274;51.992;8.518;2023-01-23T12:10:23;3.00;1.00
10453;DHT22;5274;51.992;8.518;2023-01-23T12:18:36;3.10;1.00
10453;DHT22;5274;51.992;8.518;2023-01-23T12:21:17;3.10;99.90
10453;DHT22;5274;51.992;8.518;2023-01-23T12:33:07;3.10;1.00
10453;DHT22;5274;51.992;8.518;2023-01-23T12:35:42;3.10;58.60
10453;DHT22;5274;51.992;8.518;2023-01-23T12:40:41;2.90;99.90
10453;DHT22;5274;51.992;8.518;2023-01-23T12:43:18;3.00;99.90
10453;DHT22;5274;51.992;8.518;2023-01-23T12:45:56;3.00;99.90
10453;DHT22;5274;51.992;8.518;2023-01-23T12:48:53;3.10;99.90
10453;DHT22;5274;51.992;8.518;2023-01-23T12:51:17;3.20;99.90
10453;DHT22;5274;51.992;8.518;2023-01-23T12:53:47;3.20;99.90
10453;DHT22;5274;51.992;8.518;2023-01-23T12:56:33;3.20;99.90
10453;DHT22;5274;51.992;8.518;2023-01-23T12:59:16;3.30;99.90
10453;DHT22;5274;51.992;8.518;2023-01-23T13:07:39;3.10;99.90
10453;DHT22;5274;51.992;8.518;2023-01-23T13:12:53;3.00;99.90
10453;DHT22;5274;51.992;8.518;2023-01-23T13:15:21;3.00;99.90
10453;DHT22;5274;51.992;8.518;2023-01-23T13:18:00;3.10;99.90
10453;DHT22;5274;51.992;8.518;2023-01-23T13:20:32;3.10;99.90
10453;DHT22;5274;51.992;8.518;2023-01-23T13:23:26;3.10;99.90
10453;DHT22;5274;51.992;8.518;2023-01-23T13:26:12;3.00;99.90
10453;DHT22;5274;51.992;8.518;2023-01-23T13:31:41;2.90;1.00
10453;DHT22;5274;51.992;8.518;2023-01-23T13:36:47;3.10;1.00
10453;DHT22;5274;51.992;8.518;2023-01-23T13:41:42;2.90;1.00
10453;DHT22;5274;51.992;8.518;2023-01-23T13:44:25;2.90;1.00
10453;DHT22;5274;51.992;8.518;2023-01-23T13:50:13;3.10;1.00
10453;DHT22;5274;51.992;8.518;2023-01-23T13:52:50;3.20;1.00
10453;DHT22;5274;51.992;8.518;2023-01-23T13:55:40;3.30;99.90
10453;DHT22;5274;51.992;8.518;2023-01-23T13:58:27;3.30;99.90
10453;DHT22;5274;51.992;8.518;2023-01-23T14:01:00;3.30;1.00
10453;DHT22;5274;51.992;8.518;2023-01-23T14:03:53;3.20;99.90
10453;DHT22;5274;51.992;8.518;2023-01-23T14:06:42;3.30;99.90
10453;DHT22;5274;51.992;8.518;2023-01-23T14:11:47;3.30;99.90
10453;DHT22;5274;51.992;8.518;2023-01-23T14:14:14;3.30;1.00
10453;DHT22;5274;51.992;8.518;2023-01-23T14:16:58;3.20;99.90
10453;DHT22;5274;51.992;8.518;2023-01-23T14:19:27;3.20;1.00
10453;DHT22;5274;51.992;8.518;2023-01-23T14:22:19;3.20;1.00
10453;DHT22;5274;51.992;8.518;2023-01-23T14:24:46;3.20;99.90
10453;DHT22;5274;51.992;8.518;2023-01-23T14:27:21;3.30;99.90
10453;DHT22;5274;51.992;8.518;2023-01-23T14:30:20;3.30;1.00
10453;DHT22;5274;51.992;8.518;2023-01-23T14:32:48;3.30;99.90
10453;DHT22;5274;51.992;8.518;2023-01-23T14:35:24;3.30;99.90
10453;DHT22;5274;51.992;8.518;2023-01-23T14:37:53;3.30;99.90
10453;DHT22;5274;51.992;8.518;2023-01-23T14:40:21;3.30;99.90
10453;DHT22;5274;51.992;8.518;2023-01-23T14:42:59;3.30;99.90
10453;DHT22;5274;51.992;8.518;2023-01-23T14:45:28;3.20;99.90
10453;DHT22;5274;51.992;8.518;2023-01-23T14:47:54;3.20;99.90
10453;DHT22;5274;51.992;8.518;2023-01-23T14:50:23;3.20;1.00
10453;DHT22;5274;51.992;8.518;2023-01-23T14:52:57;3.20;1.00
10453;DHT22;5274;51.992;8.518;2023-01-23T14:55:25;3.10;1.00
10453;DHT22;5274;51.992;8.518;2023-01-23T14:57:52;3.20;1.00
10453;DHT22;5274;51.992;8.518;2023-01-23T15:00:19;3.30;1.00
10453;DHT22;5274;51.992;8.518;2023-01-23T15:02:47;3.30;1.00
10453;DHT22;5274;51.992;8.518;2023-01-23T15:07:52;3.20;1.00
10453;DHT22;5274;51.992;8.518;2023-01-23T15:10:25;3.10;1.00
10453;DHT22;5274;51.992;8.518;2023-01-23T15:12:54;3.20;1.00
10453;DHT22;5274;51.992;8.518;2023-01-23T15:15:23;3.20;1.00
10453;DHT22;5274;51.992;8.518;2023-01-23T15:17:49;3.20;1.00
10453;DHT22;5274;51.992;8.518;2023-01-23T15:20:51;3.20;1.00
10453;DHT22;5274;51.992;8.518;2023-01-23T15:25:42;3.10;1.00
10453;DHT22;5274;51.992;8.518;2023-01-23T15:28:28;3.10;1.00
10453;DHT22;5274;51.992;8.518;2023-01-23T15:30:53;3.10;1.00
10453;DHT22;5274;51.992;8.518;2023-01-23T15:33:27;3.10;1.00
10453;DHT22;5274;51.992;8.518;2023-01-23T15:36:04;3.10;1.00
10453;DHT22;5274;51.992;8.518;2023-01-23T15:38:30;3.10;1.00
10453;DHT22;5274;51.992;8.518;2023-01-23T15:40:56;3.10;1.00
10453;DHT22;5274;51.992;8.518;2023-01-23T15:43:21;3.10;1.00
10453;DHT22;5274;51.992;8.518;2023-01-23T15:45:47;3.00;1.00
10453;DHT22;5274;51.992;8.518;2023-01-23T15:48:13;3.00;1.00
10453;DHT22;5274;51.992;8.518;2023-01-23T15:50:38;3.00;1.00
10453;DHT22;5274;51.992;8.518;2023-01-23T15:53:10;3.00;1.00
10453;DHT22;5274;51.992;8.518;2023-01-23T15:55:36;2.90;1.00
10453;DHT22;5274;51.992;8.518;2023-01-23T15:58:02;2.90;1.00
10453;DHT22;5274;51.992;8.518;2023-01-23T16:00:28;2.90;4.80
10453;DHT22;5274;51.992;8.518;2023-01-23T16:02:55;2.90;91.70
10453;DHT22;5274;51.992;8.518;2023-01-23T16:05:30;2.90;16.50
10453;DHT22;5274;51.992;8.518;2023-01-23T16:07:57;3.00;23.80
10453;DHT22;5274;51.992;8.518;2023-01-23T16:10:30;2.90;7.10
10453;DHT22;5274;51.992;8.518;2023-01-23T16:12:56;2.90;1.00
10453;DHT22;5274;51.992;8.518;2023-01-23T16:15:24;2.80;5.20
10453;DHT22;5274;51.992;8.518;2023-01-23T16:17:51;2.80;76.20
10453;DHT22;5274;51.992;8.518;2023-01-23T16:20:26;2.80;95.80
10453;DHT22;5274;51.992;8.518;2023-01-23T16:22:57;2.80;29.10
10453;DHT22;5274;51.992;8.518;2023-01-23T16:25:35;2.80;1.00
10453;DHT22;5274;51.992;8.518;2023-01-23T16:28:00;2.70;1.00
10453;DHT22;5274;51.992;8.518;2023-01-23T16:30:26;2.70;1.00
10453;DHT22;5274;51.992;8.518;2023-01-23T16:32:52;2.70;14.30
10453;DHT22;5274;51.992;8.518;2023-01-23T16:35:19;2.60;1.00
10453;DHT22;5274;51.992;8.518;2023-01-23T16:37:47;2.70;99.90
10453;DHT22;5274;51.992;8.518;2023-01-23T16:40:19;2.70;99.90
10453;DHT22;5274;51.992;8.518;2023-01-23T16:42:47;2.70;99.90
10453;DHT22;5274;51.992;8.518;2023-01-23T16:45:18;2.70;99.90
10453;DHT22;5274;51.992;8.518;2023-01-23T16:47:44;2.70;99.90
10453;DHT22;5274;51.992;8.518;2023-01-23T16:50:15;2.60;99.90
10453;DHT22;5274;51.992;8.518;2023-01-23T16:52:42;2.70;99.90
10453;DHT22;5274;51.992;8.518;2023-01-23T16:55:21;2.60;99.90
10453;DHT22;5274;51.992;8.518;2023-01-23T16:57:48;2.60;99.90
10453;DHT22;5274;51.992;8.518;2023-01-23T17:00:16;2.70;99.90
10453;DHT22;5274;51.992;8.518;2023-01-23T17:02:46;2.60;99.90
10453;DHT22;5274;51.992;8.518;2023-01-23T17:05:14;2.50;99.90
10453;DHT22;5274;51.992;8.518;2023-01-23T17:07:39;2.50;1.00
10453;DHT22;5274;51.992;8.518;2023-01-23T17:10:06;2.50;1.00
10453;DHT22;5274;51.992;8.518;2023-01-23T17:12:34;2.50;1.00
10453;DHT22;5274;51.992;8.518;2023-01-23T17:15:01;2.50;1.00
10453;DHT22;5274;51.992;8.518;2023-01-23T17:17:33;2.50;1.00
10453;DHT22;5274;51.992;8.518;2023-01-23T17:20:00;2.50;1.00
10453;DHT22;5274;51.992;8.518;2023-01-23T17:22:28;2.50;1.00
10453;DHT22;5274;51.992;8.518;2023-01-23T17:24:57;2.60;1.00
10453;DHT22;5274;51.992;8.518;2023-01-23T17:27:23;2.50;99.90
10453;DHT22;5274;51.992;8.518;2023-01-23T17:29:48;2.50;99.90
10453;DHT22;5274;51.992;8.518;2023-01-23T17:32:28;2.40;99.90
10453;DHT22;5274;51.992;8.518;2023-01-23T17:34:54;2.30;1.00
10453;DHT22;5274;51.992;8.518;2023-01-23T17:37:20;2.30;1.00
10453;DHT22;5274;51.992;8.518;2023-01-23T17:39:47;2.40;1.00
10453;DHT22;5274;51.992;8.518;2023-01-23T17:42:13;2.30;99.90
10453;DHT22;5274;51.992;8.518;2023-01-23T17:44:39;2.40;99.90
10453;DHT22;5274;51.992;8.518;2023-01-23T17:47:04;2.30;99.90
10453;DHT22;5274;51.992;8.518;2023-01-23T17:49:31;2.30;99.90
10453;DHT22;5274;51.992;8.518;2023-01-23T17:51:58;2.30;99.90
10453;DHT22;5274;51.992;8.518;2023-01-23T17:54:23;2.40;1.00
10453;DHT22;5274;51.992;8.518;2023-01-23T17:56:51;2.30;99.90